Great Bend, New York
Current Conditions -  °F | °C
As of 6:28 PM on Thursday 27 Nov 2014 (Local Time) from KGTB Reporting Station
Light Snow Light Snow  
Wind Chill: 25°   Ceiling: 2800
Heat Index: 25°   Visibility: 2.5mi
Dew Point: 25°   Wind: 0mph
Humidity: 100%   Direction: NA
Pressure: 30.03"   Gusts: NA
Location:  44.03°N, 75.72°W
Report Text: KGTB 272328Z AUTO 00000KT 2 1/2SM -SN BR OVC028 M04/M04 A3003 RMK AO2 VIS 2 1/2V3
Loading
Personal Weather Stations






























Interactive Weather Map New forecast layout! Learn more

10-Day Weather Forecast

Advertisements
Track Severe Weather on mobile